Time;durP1;ratioP1;P1;durP2;ratioP2;P2;SDS_P1;SDS_P2;PMS_P1;PMS_P2;Temp;Humidity;BMP_temperature;BMP_pressure;BME280_temperature;BME280_humidity;BME280_pressure;Samples;Min_cycle;Max_cycle;Signal;HPM_P1;HPM_P2
2022/12/10 00:01:22;;;;;;;25.05;8.30;;;-3.10;99.90;;;;;;5101988;28;20054;-82
2022/12/10 00:03:48;;;;;;;19.73;6.30;;;-3.10;99.90;;;;;;5103634;28;20043;-82
2022/12/10 00:06:19;;;;;;;17.48;7.05;;;-3.10;99.90;;;;;;5105242;28;20118;-82
2022/12/10 00:08:45;;;;;;;18.60;7.03;;;-3.10;99.90;;;;;;5102040;28;20052;-82
2022/12/10 00:11:12;;;;;;;20.70;7.05;;;-3.10;99.90;;;;;;5101932;28;20042;-82
2022/12/10 00:13:38;;;;;;;17.05;7.07;;;-3.20;99.90;;;;;;5101484;28;20052;-81
2022/12/10 00:16:06;;;;;;;18.63;7.72;;;-3.20;99.90;;;;;;5103746;28;20052;-81
2022/12/10 00:18:33;;;;;;;21.40;6.70;;;-3.20;99.90;;;;;;5094143;28;20031;-83
2022/12/10 00:21:20;;;;;;;16.48;6.57;;;-3.10;99.90;;;;;;5102075;28;20043;-82
2022/12/10 00:23:46;;;;;;;21.65;8.07;;;-3.10;99.90;;;;;;5104812;28;20040;-83
2022/12/10 00:26:16;;;;;;;21.75;8.25;;;-3.10;99.90;;;;;;5066080;28;20048;-83
2022/12/10 00:28:43;;;;;;;17.92;7.75;;;-3.10;99.90;;;;;;5074461;28;20055;-84
2022/12/10 00:31:11;;;;;;;18.58;8.05;;;-3.20;99.90;;;;;;5094736;28;20374;-83
2022/12/10 00:33:38;;;;;;;19.13;8.70;;;-3.10;99.90;;;;;;5103813;28;20066;-83
2022/12/10 00:36:12;;;;;;;20.75;8.07;;;-3.10;99.90;;;;;;5078233;28;20038;-83
2022/12/10 00:38:39;;;;;;;19.38;7.28;;;-3.20;99.90;;;;;;5093168;28;20063;-83
2022/12/10 00:41:05;;;;;;;21.17;7.95;;;-3.20;99.90;;;;;;5100278;28;20040;-84
2022/12/10 00:43:31;;;;;;;18.58;7.53;;;-3.20;99.90;;;;;;5074728;28;20051;-83
2022/12/10 00:45:57;;;;;;;18.88;7.60;;;-3.20;99.90;;;;;;5101196;28;20042;-83
2022/12/10 00:48:23;;;;;;;21.98;7.72;;;-3.20;99.90;;;;;;5074695;28;20051;-82
2022/12/10 00:51:04;;;;;;;18.45;7.90;;;-3.20;99.90;;;;;;5092341;28;20043;-82
2022/12/10 00:53:32;;;;;;;19.10;7.35;;;-3.20;99.90;;;;;;5074230;28;20493;-81
2022/12/10 00:55:58;;;;;;;19.77;7.65;;;-3.20;99.90;;;;;;5096834;28;20036;-82
2022/12/10 00:58:28;;;;;;;20.23;7.65;;;-3.20;99.90;;;;;;5107967;28;20051;-82
2022/12/10 01:00:54;;;;;;;21.27;7.80;;;-3.20;99.90;;;;;;5085872;28;20362;-83
2022/12/10 01:03:20;;;;;;;22.80;8.25;;;-3.20;99.90;;;;;;5074101;28;20506;-83
2022/12/10 01:05:46;;;;;;;21.63;8.18;;;-3.20;99.90;;;;;;5100239;28;20122;-82
2022/12/10 01:08:12;;;;;;;21.35;8.32;;;-3.20;99.90;;;;;;5074307;28;20078;-84
2022/12/10 01:10:37;;;;;;;21.05;7.53;;;-3.20;99.90;;;;;;5100469;28;20481;-82
2022/12/10 01:13:04;;;;;;;19.88;7.72;;;-3.20;99.90;;;;;;5101790;28;20082;-82
2022/12/10 01:15:30;;;;;;;19.80;7.70;;;-3.20;99.90;;;;;;5103844;28;20072;-82
2022/12/10 01:17:55;;;;;;;19.67;6.72;;;-3.20;99.90;;;;;;5101980;28;20066;-82
2022/12/10 01:20:21;;;;;;;18.77;7.28;;;-3.20;99.90;;;;;;5097152;28;20109;-82
2022/12/10 01:22:47;;;;;;;19.52;8.65;;;-3.10;99.90;;;;;;5096206;28;20190;-82
2022/12/10 01:25:12;;;;;;;19.48;8.18;;;-3.10;99.90;;;;;;5107451;28;20040;-83
2022/12/10 01:27:38;;;;;;;29.95;11.98;;;-3.10;99.90;;;;;;5100541;28;20504;-83
2022/12/10 01:30:06;;;;;;;32.45;9.60;;;-3.00;99.90;;;;;;5081480;28;20507;-82
2022/12/10 01:32:32;;;;;;;27.25;10.00;;;-2.90;99.90;;;;;;5092211;28;20111;-81
2022/12/10 01:34:57;;;;;;;24.88;10.18;;;-2.90;99.90;;;;;;5074747;28;20454;-82
2022/12/10 01:37:23;;;;;;;26.17;11.07;;;-2.80;99.90;;;;;;5091845;28;20474;-83
2022/12/10 01:39:48;;;;;;;27.30;11.05;;;-2.70;99.90;;;;;;5092096;28;20071;-83
2022/12/10 01:42:14;;;;;;;29.27;11.70;;;-2.70;99.90;;;;;;5081704;28;20127;-82
2022/12/10 01:44:43;;;;;;;30.15;12.05;;;-2.60;99.90;;;;;;5081952;28;20502;-83
2022/12/10 01:47:09;;;;;;;30.17;12.45;;;-2.50;99.90;;;;;;5082625;28;20040;-83
2022/12/10 01:49:40;;;;;;;39.58;13.80;;;-2.50;99.90;;;;;;5101398;28;20048;-83
2022/12/10 01:52:09;;;;;;;33.15;12.60;;;-1.30;99.90;;;;;;5097048;28;20048;-83
2022/12/10 01:54:38;;;;;;;35.78;12.95;;;-2.40;99.90;;;;;;5074202;28;20492;-83
2022/12/10 01:57:14;;;;;;;29.25;10.40;;;-2.40;99.90;;;;;;5103279;28;20127;-83
2022/12/10 01:59:41;;;;;;;29.38;11.35;;;-2.40;99.90;;;;;;5101683;28;20043;-83
2022/12/10 02:02:37;;;;;;;28.45;10.60;;;-2.40;99.90;;;;;;5098209;28;20070;-83
2022/12/10 02:05:23;;;;;;;26.38;10.80;;;-2.40;99.90;;;;;;5085020;28;20039;-83
2022/12/10 02:07:57;;;;;;;29.70;12.60;;;-2.40;99.90;;;;;;5102111;28;20083;-82
2022/12/10 02:10:34;;;;;;;27.88;10.75;;;-2.50;99.90;;;;;;5078464;28;20093;-83
2022/12/10 02:13:25;;;;;;;33.05;11.65;;;-2.50;99.90;;;;;;5091993;28;20174;-82
2022/12/10 02:15:59;;;;;;;24.73;10.68;;;-2.50;99.90;;;;;;5106429;28;20511;-83
2022/12/10 02:18:44;;;;;;;27.75;10.18;;;-1.90;99.90;;;;;;5100206;28;20043;-83
2022/12/10 02:21:19;;;;;;;30.60;11.48;;;-2.60;99.90;;;;;;5094630;28;20127;-83
2022/12/10 02:23:56;;;;;;;27.38;10.85;;;-2.60;99.90;;;;;;5099337;28;20036;-83
2022/12/10 02:26:34;;;;;;;28.95;12.07;;;-2.60;99.90;;;;;;5093134;28;20036;-83
2022/12/10 02:29:21;;;;;;;24.60;9.25;;;-2.60;99.90;;;;;;5095043;28;20101;-83
2022/12/10 02:31:55;;;;;;;31.35;10.38;;;-2.60;99.90;;;;;;5077320;28;20040;-82
2022/12/10 02:34:23;;;;;;;27.60;10.45;;;-2.50;99.90;;;;;;5084871;28;20047;-83
2022/12/10 02:36:52;;;;;;;27.58;9.63;;;-2.50;99.90;;;;;;5077439;28;20101;-83
2022/12/10 02:39:22;;;;;;;29.92;10.82;;;-2.60;99.90;;;;;;5076472;28;20376;-84
2022/12/10 02:41:52;;;;;;;25.02;10.52;;;-2.60;99.90;;;;;;5096066;28;20083;-83
2022/12/10 02:44:23;;;;;;;30.58;9.85;;;-2.60;99.90;;;;;;5059949;28;20431;-83
2022/12/10 02:46:52;;;;;;;23.90;9.77;;;-2.60;99.90;;;;;;5077061;28;20071;-83
2022/12/10 02:49:18;;;;;;;32.20;10.32;;;-2.60;99.90;;;;;;5103543;28;20047;-83
2022/12/10 02:51:44;;;;;;;24.70;9.57;;;-2.70;99.90;;;;;;5099116;28;20040;-84
2022/12/10 02:54:47;;;;;;;29.98;10.80;;;-2.70;99.90;;;;;;5106527;28;20080;-83
2022/12/10 02:57:31;;;;;;;27.45;9.63;;;-2.70;99.90;;;;;;5097640;28;20052;-82
2022/12/10 03:00:16;;;;;;;25.58;9.23;;;-2.70;99.90;;;;;;5094715;28;20039;-82
2022/12/10 03:02:48;;;;;;;24.20;8.97;;;-2.70;99.90;;;;;;5109857;28;20039;-82
2022/12/10 03:05:37;;;;;;;27.08;10.00;;;-2.70;99.90;;;;;;5102896;28;20270;-82
2022/12/10 03:08:21;;;;;;;24.80;9.63;;;-2.70;99.90;;;;;;5095270;28;20063;-82
2022/12/10 03:10:58;;;;;;;22.80;7.93;;;-2.80;99.90;;;;;;5076831;28;20048;-83
2022/12/10 03:13:31;;;;;;;18.52;8.50;;;-2.80;99.90;;;;;;5109274;28;20058;-82
2022/12/10 03:16:04;;;;;;;22.92;8.85;;;-2.80;99.90;;;;;;5090517;28;20052;-82
2022/12/10 03:18:31;;;;;;;29.00;11.13;;;-2.80;99.90;;;;;;5076574;28;20501;-82
2022/12/10 03:21:02;;;;;;;27.67;11.20;;;-2.80;99.90;;;;;;5077048;28;20044;-83
2022/12/10 03:23:29;;;;;;;30.80;10.55;;;-2.80;99.90;;;;;;5102274;28;20047;-82
2022/12/10 03:25:55;;;;;;;22.70;9.88;;;-2.80;99.90;;;;;;5100830;28;20473;-83
2022/12/10 03:28:22;;;;;;;26.45;9.25;;;-2.80;99.90;;;;;;5102481;28;20044;-83
2022/12/10 03:30:50;;;;;;;25.40;9.13;;;-2.80;99.90;;;;;;5093389;28;20044;-83
2022/12/10 03:33:16;;;;;;;24.58;9.88;;;-2.80;99.90;;;;;;5084338;28;20052;-83
2022/12/10 03:35:43;;;;;;;25.65;10.88;;;-1.70;99.90;;;;;;5093464;28;20040;-83
2022/12/10 03:38:09;;;;;;;29.90;10.60;;;-2.00;99.90;;;;;;5105773;28;20059;-83
2022/12/10 03:40:35;;;;;;;29.88;10.15;;;-2.90;99.90;;;;;;5079059;28;20032;-83
2022/12/10 03:43:01;;;;;;;26.23;9.95;;;-2.90;99.90;;;;;;5092985;28;20051;-83
2022/12/10 03:45:27;;;;;;;27.90;9.68;;;-2.80;99.90;;;;;;5101778;28;20032;-83
2022/12/10 03:47:52;;;;;;;26.73;9.98;;;-1.30;99.90;;;;;;5101335;28;20038;-83
2022/12/10 03:50:18;;;;;;;26.65;11.18;;;-3.00;99.90;;;;;;5093564;28;20040;-83
2022/12/10 03:52:44;;;;;;;25.05;9.43;;;-2.90;99.90;;;;;;5101988;28;20039;-84
2022/12/10 03:55:10;;;;;;;27.58;10.45;;;-3.00;99.90;;;;;;5101604;28;20052;-84
2022/12/10 03:57:35;;;;;;;27.13;9.75;;;-2.90;99.90;;;;;;5101041;28;20035;-83
2022/12/10 04:00:03;;;;;;;23.23;9.60;;;-2.10;99.90;;;;;;5083291;28;20044;-84
2022/12/10 04:02:29;;;;;;;22.67;8.90;;;-3.10;99.90;;;;;;5083597;28;20420;-82
2022/12/10 04:04:54;;;;;;;24.98;9.68;;;-2.20;99.90;;;;;;5098244;28;20036;-83
2022/12/10 04:07:20;;;;;;;28.40;9.98;;;-3.00;99.90;;;;;;5101859;28;20033;-83
2022/12/10 04:09:46;;;;;;;21.52;9.50;;;-3.00;99.90;;;;;;5093271;28;20457;-83
2022/12/10 04:12:14;;;;;;;26.90;10.27;;;-2.90;99.90;;;;;;5074879;28;20132;-83
2022/12/10 04:17:24;;;;;;;24.25;9.38;;;-2.90;99.90;;;;;;5088688;28;20043;-83
2022/12/10 04:19:50;;;;;;;28.88;10.45;;;-2.90;99.90;;;;;;5097630;28;20043;-82
2022/12/10 04:26:51;;;;;;;26.02;9.65;;;-2.90;99.90;;;;;;5107888;28;20040;-83
2022/12/10 04:27:48;;;;;;;24.10;8.40;;;-2.90;99.90;;;;;;5091352;28;20043;-83
2022/12/10 04:30:14;;;;;;;20.48;7.97;;;-2.30;99.90;;;;;;5094372;28;20050;-83
2022/12/10 04:32:39;;;;;;;22.27;8.43;;;-2.90;99.90;;;;;;5101590;28;20039;-83
2022/12/10 04:35:06;;;;;;;28.92;10.15;;;-1.70;99.90;;;;;;5101163;28;20040;-84
2022/12/10 04:37:31;;;;;;;19.02;9.00;;;-2.90;99.90;;;;;;5092722;28;20048;-83
2022/12/10 04:39:57;;;;;;;21.75;8.82;;;-2.90;99.90;;;;;;5101584;28;20048;-84
2022/12/10 04:42:23;;;;;;;23.27;10.23;;;-3.00;99.90;;;;;;5075890;28;20044;-84
2022/12/10 04:44:49;;;;;;;29.95;9.88;;;-2.80;99.90;;;;;;5081030;28;20126;-84
2022/12/10 04:47:15;;;;;;;25.88;9.90;;;-2.90;99.90;;;;;;5091863;28;20442;-83
2022/12/10 04:49:40;;;;;;;28.55;10.27;;;-1.90;99.90;;;;;;5082576;28;20063;-83
2022/12/10 04:52:07;;;;;;;24.70;9.15;;;-2.80;99.90;;;;;;5074798;28;20400;-83
2022/12/10 04:54:33;;;;;;;26.00;9.63;;;-2.80;99.90;;;;;;5074394;28;20053;-83
2022/12/10 04:56:59;;;;;;;24.50;9.48;;;-2.80;99.90;;;;;;5083256;28;20191;-83
2022/12/10 04:59:25;;;;;;;27.80;9.35;;;-2.80;99.90;;;;;;5091739;28;20160;-83
2022/12/10 05:01:50;;;;;;;23.90;10.30;;;-2.80;99.90;;;;;;5097040;28;20043;-83
2022/12/10 05:04:18;;;;;;;29.50;10.55;;;-2.20;99.90;;;;;;5078169;28;20036;-82
2022/12/10 05:06:44;;;;;;;32.10;11.07;;;-2.80;99.90;;;;;;5100340;28;20044;-83
2022/12/10 05:09:11;;;;;;;30.63;11.75;;;-2.80;99.90;;;;;;5092498;28;20044;-82
2022/12/10 05:11:41;;;;;;;31.45;10.82;;;-2.80;99.90;;;;;;5100289;28;20078;-83
2022/12/10 05:14:09;;;;;;;34.85;12.65;;;-2.80;99.90;;;;;;5074126;28;20122;-82
2022/12/10 05:16:34;;;;;;;27.65;11.10;;;-2.80;99.90;;;;;;5082056;28;20052;-83
2022/12/10 05:19:00;;;;;;;29.08;10.68;;;-2.80;99.90;;;;;;5095252;28;20040;-82
2022/12/10 05:23:27;;;;;;;41.45;14.35;;;-2.80;99.90;;;;;;5104158;28;20572;-83
2022/12/10 05:24:14;;;;;;;39.08;13.93;;;-2.70;99.90;;;;;;5086299;28;20047;-83
2022/12/10 05:26:40;;;;;;;36.92;12.73;;;-2.70;99.90;;;;;;5092802;28;20097;-83
2022/12/10 05:29:06;;;;;;;34.20;12.93;;;-2.70;99.90;;;;;;5099781;28;20051;-83
2022/12/10 05:31:31;;;;;;;31.27;11.63;;;-2.70;99.90;;;;;;5093287;28;20040;-84
2022/12/10 05:33:58;;;;;;;27.42;10.95;;;-1.70;99.90;;;;;;5107463;28;20048;-83
2022/12/10 05:36:26;;;;;;;30.08;12.15;;;-1.80;99.90;;;;;;5100001;28;20101;-83
2022/12/10 05:38:53;;;;;;;46.80;16.35;;;-2.50;99.90;;;;;;5073569;28;20036;-83
2022/12/10 05:41:21;;;;;;;51.30;18.17;;;-2.40;99.90;;;;;;5104163;28;20492;-83
2022/12/10 05:43:47;;;;;;;39.42;15.13;;;-2.30;99.90;;;;;;5094957;28;20040;-83
2022/12/10 05:46:21;;;;;;;44.40;17.45;;;-2.30;99.90;;;;;;5100578;28;20040;-83
2022/12/10 05:48:47;;;;;;;42.13;16.33;;;-2.20;99.90;;;;;;5091940;28;20044;-83
2022/12/10 05:51:15;;;;;;;47.85;16.60;;;-2.20;99.90;;;;;;5100145;28;20085;-83
2022/12/10 05:53:41;;;;;;;50.22;15.82;;;-2.20;99.90;;;;;;5100515;28;20039;-83
2022/12/10 05:56:13;;;;;;;35.30;14.07;;;-2.20;99.90;;;;;;5099958;28;20039;-83
2022/12/10 05:58:40;;;;;;;41.60;14.25;;;-2.10;99.90;;;;;;5104277;28;20035;-83
2022/12/10 06:01:18;;;;;;;42.78;15.73;;;-2.10;99.90;;;;;;5077784;28;20551;-83
2022/12/10 06:03:44;;;;;;;36.17;13.75;;;-2.10;99.90;;;;;;5086072;28;20479;-83
2022/12/10 06:06:11;;;;;;;37.72;13.05;;;-2.10;99.90;;;;;;5077623;28;20048;-83
2022/12/10 06:08:37;;;;;;;40.20;13.73;;;-2.10;99.90;;;;;;5085475;28;20052;-83
2022/12/10 06:11:05;;;;;;;37.58;13.50;;;-2.10;99.90;;;;;;5102314;28;20040;-83
2022/12/10 06:13:30;;;;;;;35.55;10.68;;;-2.10;99.90;;;;;;5078176;28;20384;-83
2022/12/10 06:15:56;;;;;;;31.27;11.95;;;-1.50;99.90;;;;;;5095831;28;20052;-83
2022/12/10 06:18:22;;;;;;;32.50;12.68;;;-1.10;99.90;;;;;;5106974;28;20043;-83
2022/12/10 06:20:51;;;;;;;41.58;15.00;;;-2.10;99.90;;;;;;5095799;28;20500;-84
2022/12/10 06:23:16;;;;;;;38.33;14.90;;;-2.00;99.90;;;;;;5098058;28;20032;-84
2022/12/10 06:25:42;;;;;;;35.38;13.57;;;-2.00;99.90;;;;;;5082834;28;20513;-84
2022/12/10 06:28:08;;;;;;;39.65;14.57;;;-2.00;99.90;;;;;;5077789;28;20441;-84
2022/12/10 06:30:35;;;;;;;31.38;12.00;;;-2.10;99.90;;;;;;5077733;28;20036;-84
2022/12/10 06:33:04;;;;;;;26.58;11.05;;;-2.10;99.90;;;;;;5102275;28;20040;-83
2022/12/10 06:35:29;;;;;;;37.03;13.23;;;-2.00;99.90;;;;;;5107072;28;20046;-84
2022/12/10 06:37:55;;;;;;;34.03;12.23;;;-1.10;99.90;;;;;;5099310;28;20492;-84
2022/12/10 06:40:21;;;;;;;35.20;13.30;;;-2.60;99.90;;;;;;5077216;28;20039;-84
2022/12/10 06:42:46;;;;;;;26.45;10.38;;;-2.00;99.90;;;;;;5085449;28;20385;-84
2022/12/10 06:45:12;;;;;;;31.58;11.63;;;-0.50;99.90;;;;;;5076673;28;20047;-83
2022/12/10 06:47:38;;;;;;;34.38;13.32;;;-2.00;99.90;;;;;;5103186;28;20047;-83
2022/12/10 06:50:04;;;;;;;37.15;11.55;;;-2.00;99.90;;;;;;5103018;28;20047;-84
2022/12/10 06:52:30;;;;;;;31.70;10.23;;;-1.90;99.90;;;;;;5097965;28;20412;-84
2022/12/10 06:54:56;;;;;;;28.90;10.10;;;-1.90;99.90;;;;;;5099639;28;20047;-84
2022/12/10 06:57:22;;;;;;;27.70;10.43;;;-1.90;99.90;;;;;;5104598;28;20040;-83
2022/12/10 06:59:47;;;;;;;28.85;10.18;;;-1.90;99.90;;;;;;5101627;28;20032;-84
2022/12/10 07:02:13;;;;;;;24.08;9.32;;;-1.80;99.90;;;;;;5103417;28;20036;-84
2022/12/10 07:04:39;;;;;;;26.50;9.43;;;-1.80;99.90;;;;;;5108385;28;20051;-84
2022/12/10 07:07:06;;;;;;;30.17;10.70;;;-1.80;99.90;;;;;;5084661;28;20047;-84
2022/12/10 07:09:32;;;;;;;26.27;10.80;;;-0.60;99.90;;;;;;5093173;28;20059;-84
2022/12/10 07:11:58;;;;;;;25.50;8.80;;;-1.80;99.90;;;;;;5060575;28;20047;-84
2022/12/10 07:14:24;;;;;;;29.25;10.15;;;-1.80;99.90;;;;;;5102289;28;20047;-83
2022/12/10 07:16:49;;;;;;;25.83;9.98;;;-1.80;99.90;;;;;;5103052;28;20123;-84
2022/12/10 07:19:15;;;;;;;30.10;10.68;;;-1.80;99.90;;;;;;5093849;28;20466;-84
2022/12/10 07:21:45;;;;;;;34.78;11.88;;;-1.80;99.90;;;;;;5102411;28;20039;-84
2022/12/10 07:24:16;;;;;;;31.02;10.07;;;-1.80;99.90;;;;;;5109317;28;20122;-84
2022/12/10 07:26:44;;;;;;;23.45;8.85;;;-1.10;99.90;;;;;;5089973;28;20038;-84
2022/12/10 07:29:16;;;;;;;29.83;9.65;;;-1.80;99.90;;;;;;5099284;28;20044;-84
2022/12/10 07:31:42;;;;;;;29.80;10.60;;;-1.80;99.90;;;;;;5102352;28;20040;-84
2022/12/10 07:34:09;;;;;;;22.80;8.77;;;-1.80;99.90;;;;;;5102237;28;20054;-83
2022/12/10 07:36:35;;;;;;;23.88;9.68;;;-1.80;99.90;;;;;;5101928;28;20092;-82
2022/12/10 07:39:01;;;;;;;26.17;10.40;;;-1.60;99.90;;;;;;5082931;28;20051;-83
2022/12/10 07:41:27;;;;;;;25.15;9.77;;;-1.80;99.90;;;;;;5108412;28;20077;-83
2022/12/10 07:43:53;;;;;;;21.55;8.32;;;-1.90;99.90;;;;;;5105839;28;20055;-83
2022/12/10 07:46:25;;;;;;;25.75;9.32;;;-1.80;99.90;;;;;;5105813;28;20365;-83
2022/12/10 07:48:51;;;;;;;26.02;9.52;;;-1.80;99.90;;;;;;5102178;28;20039;-84
2022/12/10 07:51:20;;;;;;;27.92;10.80;;;-1.80;99.90;;;;;;5101350;28;20047;-83
2022/12/10 07:53:46;;;;;;;26.05;10.65;;;-1.90;99.90;;;;;;5075299;28;20052;-82
2022/12/10 07:56:12;;;;;;;27.85;10.48;;;-1.10;99.90;;;;;;5106935;28;20052;-83
2022/12/10 07:58:41;;;;;;;26.77;9.52;;;-1.90;99.90;;;;;;5095260;28;20051;-82
2022/12/10 08:01:08;;;;;;;30.08;12.18;;;-1.90;99.90;;;;;;5059314;28;20040;-82
2022/12/10 08:03:34;;;;;;;34.00;12.30;;;-1.90;99.90;;;;;;5100897;28;20039;-82
2022/12/10 08:06:05;;;;;;;26.52;10.02;;;-1.30;99.90;;;;;;5068006;28;20040;-83
2022/12/10 08:08:34;;;;;;;31.70;11.68;;;-1.90;99.90;;;;;;5101358;28;20123;-84
2022/12/10 08:11:00;;;;;;;26.25;10.20;;;-1.40;99.90;;;;;;5082665;28;20048;-85
2022/12/10 08:13:29;;;;;;;26.05;10.88;;;-1.30;99.90;;;;;;5102848;28;20149;-87
2022/12/10 08:16:10;;;;;;;28.58;9.95;;;-2.20;99.90;;;;;;5107675;28;20098;-86
2022/12/10 08:18:38;;;;;;;30.92;11.73;;;-1.90;99.90;;;;;;5101555;28;20085;-87
2022/12/10 08:21:09;;;;;;;31.75;11.43;;;-0.60;99.90;;;;;;5062192;28;20130;-83
2022/12/10 08:23:35;;;;;;;29.35;12.13;;;-1.90;99.90;;;;;;5078796;28;20048;-85
2022/12/10 08:26:06;;;;;;;25.55;10.15;;;-1.30;99.90;;;;;;5075306;28;20048;-86
2022/12/10 08:28:32;;;;;;;34.75;12.50;;;-2.00;99.90;;;;;;5079399;28;20111;-85
2022/12/10 08:30:58;;;;;;;34.20;13.02;;;-1.80;99.90;;;;;;5106841;28;20052;-86
2022/12/10 08:33:24;;;;;;;35.67;13.13;;;-0.50;99.90;;;;;;5105872;28;20040;-88
2022/12/10 08:35:50;;;;;;;34.67;12.57;;;-2.00;99.90;;;;;;5075868;28;20127;-86
2022/12/10 08:38:15;;;;;;;27.65;11.32;;;-1.80;99.90;;;;;;5075664;28;20064;-85
2022/12/10 08:40:42;;;;;;;32.25;11.00;;;-2.00;99.90;;;;;;5074372;28;20040;-84
2022/12/10 08:43:08;;;;;;;31.33;11.63;;;-1.80;99.90;;;;;;5083199;28;20357;-84
2022/12/10 08:45:33;;;;;;;30.70;10.93;;;-1.80;99.90;;;;;;5081897;28;20040;-85
2022/12/10 08:48:01;;;;;;;35.55;12.38;;;-1.90;99.90;;;;;;5075577;28;20443;-85
2022/12/10 08:50:27;;;;;;;28.75;11.88;;;-1.90;99.90;;;;;;5074480;28;20391;-85
2022/12/10 08:52:53;;;;;;;33.80;11.63;;;-2.00;99.90;;;;;;5074175;28;20040;-84
2022/12/10 08:55:18;;;;;;;35.15;12.00;;;-0.30;99.90;;;;;;5083217;28;20046;-84
2022/12/10 08:57:47;;;;;;;32.13;11.95;;;-1.90;99.90;;;;;;5092885;28;20040;-84
2022/12/10 09:00:13;;;;;;;29.92;12.10;;;-1.20;99.90;;;;;;5082809;28;20075;-84
2022/12/10 09:02:39;;;;;;;28.75;11.60;;;-1.80;99.90;;;;;;5092334;28;20044;-89
2022/12/10 09:05:06;;;;;;;33.50;11.48;;;-1.90;99.90;;;;;;5082445;28;20047;-87
2022/12/10 09:07:35;;;;;;;27.42;10.55;;;-1.80;99.90;;;;;;5080876;28;20495;-86
2022/12/10 09:10:01;;;;;;;31.90;10.43;;;-1.00;99.90;;;;;;5102049;28;20040;-86
2022/12/10 09:12:31;;;;;;;27.80;12.45;;;-1.80;99.90;;;;;;5065278;28;20437;-87
2022/12/10 09:14:57;;;;;;;32.85;13.02;;;-1.50;99.90;;;;;;5074145;28;20057;-84
2022/12/10 09:17:22;;;;;;;24.27;10.40;;;-1.90;99.90;;;;;;5074571;28;20123;-85
2022/12/10 09:19:48;;;;;;;28.65;10.68;;;0.00;99.90;;;;;;5091382;28;20119;-85
2022/12/10 09:22:14;;;;;;;35.70;13.60;;;-1.80;99.90;;;;;;5092087;28;20047;-85
2022/12/10 09:24:39;;;;;;;32.42;12.48;;;0.70;99.90;;;;;;5074522;28;20043;-87
2022/12/10 09:27:05;;;;;;;30.95;11.93;;;-0.50;99.90;;;;;;5092099;28;20048;-86
2022/12/10 09:29:31;;;;;;;27.23;10.40;;;0.70;99.90;;;;;;5074097;28;20048;-87
2022/12/10 09:31:56;;;;;;;29.23;10.80;;;-1.70;99.90;;;;;;5073667;28;20434;-85
2022/12/10 09:34:22;;;;;;;23.55;9.88;;;-1.70;99.90;;;;;;5092163;28;20136;-84
2022/12/10 09:36:48;;;;;;;27.92;10.07;;;-1.60;99.90;;;;;;5074255;28;20051;-86
2022/12/10 09:39:14;;;;;;;27.42;10.40;;;-1.60;99.90;;;;;;5074344;28;20476;-87
2022/12/10 09:41:40;;;;;;;30.10;11.00;;;-1.10;99.90;;;;;;5074453;28;20036;-91
2022/12/10 09:44:31;;;;;;;31.15;11.38;;;-1.60;99.90;;;;;;5074170;28;20043;-86
2022/12/10 09:46:59;;;;;;;23.20;9.50;;;-1.60;99.90;;;;;;5092331;28;20047;-87
2022/12/10 09:49:51;;;;;;;27.92;10.07;;;-1.60;99.90;;;;;;5074007;28;20044;-84
2022/12/10 09:52:20;;;;;;;23.35;9.27;;;-1.60;99.90;;;;;;5072838;28;20064;-84
2022/12/10 09:54:57;;;;;;;22.23;8.45;;;-1.60;99.90;;;;;;5092143;28;20040;-86
2022/12/10 09:57:31;;;;;;;22.63;8.82;;;-1.60;99.90;;;;;;5092072;28;20832;-84
2022/12/10 10:00:01;;;;;;;26.33;9.18;;;-2.30;99.90;;;;;;5092099;28;20551;-83
2022/12/10 10:02:31;;;;;;;20.40;7.75;;;-1.60;99.90;;;;;;5091962;28;20070;-82
2022/12/10 10:05:06;;;;;;;20.88;7.78;;;-1.60;99.90;;;;;;5074126;28;20040;-88
2022/12/10 10:07:34;;;;;;;20.08;8.75;;;-0.80;99.90;;;;;;5072605;28;20126;-86
2022/12/10 10:10:06;;;;;;;24.50;9.52;;;-1.10;99.90;;;;;;5091458;28;20048;-85
2022/12/10 10:12:34;;;;;;;29.65;11.18;;;-1.50;99.90;;;;;;5092069;28;20038;-84
2022/12/10 10:15:12;;;;;;;27.15;9.65;;;-1.60;99.90;;;;;;5091982;28;20082;-86
2022/12/10 10:17:38;;;;;;;26.83;10.38;;;-1.50;99.90;;;;;;5091438;28;20070;-84
2022/12/10 10:20:04;;;;;;;22.48;8.63;;;-1.60;99.90;;;;;;5099881;28;20401;-84
2022/12/10 10:22:31;;;;;;;23.55;8.43;;;-1.50;99.90;;;;;;5102453;28;20036;-86
2022/12/10 10:25:02;;;;;;;24.85;9.02;;;-1.50;99.90;;;;;;5079101;28;20032;-83
2022/12/10 10:27:31;;;;;;;23.70;9.18;;;-1.50;99.90;;;;;;5073604;28;20104;-86
2022/12/10 10:30:00;;;;;;;22.35;8.02;;;-1.60;99.90;;;;;;5100156;28;20032;-83
2022/12/10 10:32:50;;;;;;;18.70;7.47;;;-0.80;99.90;;;;;;5099460;28;20046;-84
2022/12/10 10:35:33;;;;;;;17.90;7.25;;;-0.70;99.90;;;;;;5099804;28;20044;-83
2022/12/10 10:38:07;;;;;;;23.02;8.98;;;-1.50;99.90;;;;;;5103471;28;20100;-86
2022/12/10 10:40:40;;;;;;;18.60;8.73;;;-1.50;99.90;;;;;;5091482;28;20052;-85
2022/12/10 10:43:13;;;;;;;15.75;7.15;;;-1.50;99.90;;;;;;5101473;28;20070;-86
2022/12/10 10:45:41;;;;;;;21.65;7.22;;;-1.40;99.90;;;;;;5084303;28;20550;-84
2022/12/10 10:48:16;;;;;;;16.02;7.03;;;-0.50;99.90;;;;;;5067942;28;20050;-85
2022/12/10 10:50:50;;;;;;;21.95;9.00;;;-1.40;99.90;;;;;;5103509;28;20064;-85
2022/12/10 10:53:30;;;;;;;20.38;8.65;;;-1.40;99.90;;;;;;5103255;28;20040;-85
2022/12/10 10:56:04;;;;;;;20.40;8.82;;;-1.40;99.90;;;;;;5089546;28;20044;-84
2022/12/10 10:58:31;;;;;;;26.13;9.33;;;-1.20;99.90;;;;;;5102990;28;20059;-84
2022/12/10 11:01:03;;;;;;;21.98;7.80;;;-1.30;99.90;;;;;;5099993;28;20074;-87
2022/12/10 11:03:31;;;;;;;21.15;8.13;;;-0.30;99.90;;;;;;5097555;28;20055;-86
2022/12/10 11:05:58;;;;;;;19.90;7.78;;;-1.30;99.90;;;;;;5106438;28;20071;-84
2022/12/10 11:08:28;;;;;;;23.60;8.60;;;-0.30;99.90;;;;;;5106239;28;20122;-85
2022/12/10 11:11:11;;;;;;;19.58;8.32;;;-0.80;99.90;;;;;;5092377;28;20047;-88
2022/12/10 11:13:37;;;;;;;24.20;7.47;;;0.10;99.90;;;;;;5103991;28;20054;-86
2022/12/10 11:16:24;;;;;;;19.35;8.13;;;-1.10;99.90;;;;;;5099827;28;20047;-86
2022/12/10 11:19:04;;;;;;;22.00;7.90;;;-0.60;99.90;;;;;;5105863;28;20031;-85
2022/12/10 11:21:34;;;;;;;17.30;7.22;;;-0.50;99.90;;;;;;5099067;28;20044;-87
2022/12/10 11:24:04;;;;;;;21.23;8.13;;;-0.90;99.90;;;;;;5106451;28;20126;-87
2022/12/10 11:26:50;;;;;;;22.77;8.07;;;-0.90;99.90;;;;;;5097559;28;20036;-83
2022/12/10 11:29:40;;;;;;;23.67;8.75;;;-0.90;99.90;;;;;;5095869;28;20052;-84
2022/12/10 11:32:18;;;;;;;28.27;9.82;;;-0.90;99.90;;;;;;5092811;28;20043;-85
2022/12/10 11:34:49;;;;;;;22.85;9.07;;;0.20;99.90;;;;;;5085185;28;20043;-83
2022/12/10 11:37:44;;;;;;;22.90;8.45;;;-0.80;99.90;;;;;;5102959;28;20046;-85
2022/12/10 11:40:18;;;;;;;24.30;9.65;;;-1.80;99.90;;;;;;5095532;28;20048;-84
2022/12/10 11:43:01;;;;;;;18.92;7.90;;;-0.50;99.90;;;;;;5096130;28;20078;-84
2022/12/10 11:46:00;;;;;;;22.73;8.35;;;-0.90;99.90;;;;;;5101769;28;20044;-86
2022/12/10 11:48:59;;;;;;;23.38;8.55;;;-0.80;99.90;;;;;;5072098;28;20493;-84
2022/12/10 11:51:35;;;;;;;19.67;8.50;;;-0.80;99.90;;;;;;5089683;28;20044;-86
2022/12/10 11:54:01;;;;;;;;;;;-0.90;99.90;;;;;;5090522;28;20047;-83
2022/12/10 11:56:52;;;;;;;23.55;8.95;;;-0.90;99.90;;;;;;5105110;28;20371;-84
2022/12/10 11:59:36;;;;;;;27.52;10.35;;;-0.90;99.90;;;;;;5070039;28;20520;-85
2022/12/10 12:02:37;;;;;;;21.48;8.85;;;0.10;99.90;;;;;;5067099;28;20040;-83
2022/12/10 12:05:24;;;;;;;23.45;8.00;;;-0.90;99.90;;;;;;5102481;28;20070;-85
2022/12/10 12:08:30;;;;;;;25.52;8.88;;;-0.90;99.90;;;;;;5103270;28;20050;-85
2022/12/10 12:11:11;;;;;;;22.65;7.93;;;-0.90;99.90;;;;;;5095696;28;20386;-88
2022/12/10 12:14:01;;;;;;;22.13;8.38;;;-0.90;99.90;;;;;;5105493;28;20043;-88
2022/12/10 12:16:51;;;;;;;26.67;10.50;;;-1.00;99.90;;;;;;5070128;28;20504;-89
2022/12/10 12:19:25;;;;;;;24.63;10.35;;;-1.30;99.90;;;;;;5068641;28;20131;-90
2022/12/10 12:21:51;;;;;;;23.77;9.77;;;-0.10;99.90;;;;;;5101355;28;20047;-88
2022/12/10 12:24:20;;;;;;;28.90;10.05;;;0.20;99.90;;;;;;5075827;28;20423;-84
2022/12/10 12:26:58;;;;;;;21.35;9.65;;;-1.00;99.90;;;;;;5075755;28;20076;-84
2022/12/10 12:29:44;;;;;;;22.63;9.48;;;-0.90;99.90;;;;;;5069501;28;20040;-86
2022/12/10 12:32:45;;;;;;;22.58;9.70;;;-0.90;99.90;;;;;;5103524;28;20031;-87
2022/12/10 12:35:33;;;;;;;22.58;8.60;;;-1.00;99.90;;;;;;5012082;28;20085;-87
2022/12/10 12:38:06;;;;;;;17.50;7.70;;;-0.90;99.90;;;;;;4984824;28;20443;-84
2022/12/10 12:41:02;;;;;;;20.30;7.65;;;0.20;99.90;;;;;;5002629;28;20046;-85
2022/12/10 12:43:37;;;;;;;17.90;7.50;;;-0.90;99.90;;;;;;4969366;28;20086;-86
2022/12/10 12:46:15;;;;;;;18.80;8.10;;;-0.80;99.90;;;;;;5005940;28;20054;-87
2022/12/10 12:48:51;;;;;;;22.48;8.50;;;-0.20;99.90;;;;;;4999169;28;20500;-84
2022/12/10 12:51:29;;;;;;;21.08;8.18;;;-0.90;99.90;;;;;;4975838;28;20125;-82
2022/12/10 12:53:55;;;;;;;22.95;9.40;;;-1.10;99.90;;;;;;4999201;28;20042;-85
2022/12/10 12:56:26;;;;;;;22.30;8.57;;;0.50;99.90;;;;;;4999419;28;20109;-86